createdAt,value
2022-11-19T00:01:25.906Z,98314.79
2022-11-19T00:03:53.467Z,98320.42
2022-11-19T00:06:23.190Z,98331.85
2022-11-19T00:08:49.961Z,98334.39
2022-11-19T00:11:37.729Z,98334.27
2022-11-19T00:14:05.082Z,98336.71
2022-11-19T00:16:32.002Z,98344.56
2022-11-19T00:18:59.255Z,98341.74
2022-11-19T00:21:26.203Z,98335.38
2022-11-19T00:23:54.152Z,98342.05
2022-11-19T00:26:21.495Z,98344.73
2022-11-19T00:28:48.400Z,98351.29
2022-11-19T00:31:16.347Z,98349.25
2022-11-19T00:33:45.007Z,98349.56
2022-11-19T00:36:14.928Z,98337.40
2022-11-19T00:38:42.564Z,98340.85
2022-11-19T00:41:10.292Z,98346.02
2022-11-19T00:43:46.415Z,98349.09
2022-11-19T00:46:15.406Z,98354.11
2022-11-19T00:48:42.312Z,98355.10
2022-11-19T00:51:09.971Z,98373.34
2022-11-19T00:53:37.308Z,98377.30
2022-11-19T00:56:07.565Z,98374.66
2022-11-19T00:58:34.967Z,98377.41
2022-11-19T01:01:02.115Z,98375.09
2022-11-19T01:03:29.604Z,98373.69
2022-11-19T01:05:57.432Z,98372.69
2022-11-19T01:08:24.270Z,98376.84
2022-11-19T01:10:51.399Z,98382.31
2022-11-19T01:13:36.807Z,98385.71
2022-11-19T01:16:08.253Z,98387.21
2022-11-19T01:18:36.493Z,98394.77
2022-11-19T01:21:05.243Z,98395.57
2022-11-19T01:23:33.462Z,98401.84
2022-11-19T01:26:00.821Z,98403.21
2022-11-19T01:28:28.565Z,98413.20
2022-11-19T01:30:55.538Z,98422.00
2022-11-19T01:33:22.556Z,98432.34
2022-11-19T01:36:01.027Z,98441.62
2022-11-19T01:38:29.076Z,98442.84
2022-11-19T01:40:57.006Z,98438.92
2022-11-19T01:43:47.132Z,98444.52
2022-11-19T01:46:28.323Z,98444.33
2022-11-19T01:49:00.841Z,98446.42
2022-11-19T01:51:32.647Z,98441.05
2022-11-19T01:54:04.615Z,98440.20
2022-11-19T01:56:31.555Z,98447.73
2022-11-19T01:59:03.469Z,98451.34
2022-11-19T02:01:31.959Z,98456.77
2022-11-19T02:04:04.441Z,98467.02
2022-11-19T02:06:33.818Z,98476.65
2022-11-19T02:09:00.737Z,98476.02
2022-11-19T02:11:37.394Z,98479.77
2022-11-19T02:14:22.463Z,98470.94
2022-11-19T02:17:11.121Z,98476.24
2022-11-19T02:19:40.898Z,98495.36
2022-11-19T02:22:23.491Z,98514.02
2022-11-19T02:24:53.278Z,98520.59
2022-11-19T02:27:35.479Z,98525.46
2022-11-19T02:30:05.446Z,98528.01
2022-11-19T02:33:08.226Z,98538.68
2022-11-19T02:35:43.033Z,98555.86
2022-11-19T02:38:23.757Z,98565.27
2022-11-19T02:41:23.917Z,98568.30
2022-11-19T02:44:20.910Z,98579.21
2022-11-19T02:46:51.669Z,98585.90
2022-11-19T02:49:23.058Z,98593.77
2022-11-19T02:51:50.085Z,98594.66
2022-11-19T02:54:17.732Z,98600.27
2022-11-19T02:56:51.416Z,98607.66
2022-11-19T02:59:44.563Z,98599.61
2022-11-19T03:02:33.551Z,98616.39
2022-11-19T03:05:01.899Z,98622.35
2022-11-19T03:07:29.054Z,98622.28
2022-11-19T03:09:59.697Z,98635.77
2022-11-19T03:12:49.502Z,98651.15
2022-11-19T03:15:53.463Z,98652.88
2022-11-19T03:18:38.344Z,98660.11
2022-11-19T03:21:05.312Z,98668.34
2022-11-19T03:23:39.697Z,98674.48
2022-11-19T03:26:35.021Z,98679.59
2022-11-19T03:29:05.410Z,98693.09
2022-11-19T03:31:34.207Z,98689.88
2022-11-19T03:34:07.164Z,98696.44
2022-11-19T03:36:40.340Z,98710.44
2022-11-19T03:39:14.994Z,98726.09
2022-11-19T03:41:46.130Z,98730.48
2022-11-19T03:44:30.051Z,98742.90
2022-11-19T03:47:09.369Z,98769.01
2022-11-19T03:49:41.091Z,98778.19
2022-11-19T03:52:14.746Z,98780.27
2022-11-19T03:54:42.235Z,98800.72
2022-11-19T03:57:13.253Z,98804.04
2022-11-19T03:59:40.273Z,98811.41
2022-11-19T04:02:09.473Z,98813.99
2022-11-19T04:04:37.795Z,98827.63
2022-11-19T04:07:16.796Z,98835.87
2022-11-19T04:09:44.062Z,98851.02
2022-11-19T04:12:22.071Z,98857.59
2022-11-19T04:14:49.775Z,98868.07
2022-11-19T04:17:18.031Z,98873.27
2022-11-19T04:19:45.066Z,98890.02
2022-11-19T04:22:12.035Z,98888.55
2022-11-19T04:24:38.815Z,98893.70
2022-11-19T04:27:05.585Z,98889.09
2022-11-19T04:29:32.458Z,98891.51
2022-11-19T04:31:59.250Z,98896.67
2022-11-19T04:34:26.134Z,98908.77
2022-11-19T04:36:52.889Z,98915.34
2022-11-19T04:39:20.213Z,98907.34
2022-11-19T04:41:47.437Z,98906.57
2022-11-19T04:44:14.337Z,98915.73
2022-11-19T04:46:41.123Z,98924.85
2022-11-19T04:49:07.971Z,98930.66
2022-11-19T04:51:34.750Z,98940.27
2022-11-19T04:54:01.680Z,98950.39
2022-11-19T04:56:28.599Z,98961.69
2022-11-19T04:58:55.447Z,98971.79
2022-11-19T05:01:22.321Z,98986.56
2022-11-19T05:03:50.224Z,99001.99
2022-11-19T05:06:17.025Z,99009.20
2022-11-19T05:08:44.552Z,99008.19
2022-11-19T05:11:11.811Z,99019.13
2022-11-19T05:13:38.670Z,99028.55
2022-11-19T05:16:05.629Z,99030.58
2022-11-19T05:18:33.285Z,99033.22
2022-11-19T05:21:00.270Z,99045.55
2022-11-19T05:23:28.014Z,99045.86
2022-11-19T05:25:54.916Z,99051.13
2022-11-19T05:28:32.707Z,99057.63
2022-11-19T05:31:05.415Z,99064.27
2022-11-19T05:33:34.231Z,99069.38
2022-11-19T05:36:02.515Z,99083.50
2022-11-19T05:38:29.331Z,99097.60
2022-11-19T05:40:56.156Z,99102.46
2022-11-19T05:43:23.071Z,99110.74
2022-11-19T05:45:49.885Z,99118.02
2022-11-19T05:48:16.702Z,99121.55
2022-11-19T05:50:43.481Z,99131.77
2022-11-19T05:53:10.294Z,99134.36
2022-11-19T05:55:37.020Z,99143.50
2022-11-19T05:58:03.848Z,99145.39
2022-11-19T06:00:30.756Z,99153.51
2022-11-19T06:02:57.730Z,99166.13
2022-11-19T06:05:24.493Z,99162.89
2022-11-19T06:07:51.282Z,99163.48
2022-11-19T06:10:18.220Z,99164.12
2022-11-19T06:12:46.076Z,99170.77
2022-11-19T06:15:14.250Z,99173.95
2022-11-19T06:17:41.595Z,99183.35
2022-11-19T06:20:10.505Z,99187.24
2022-11-19T06:22:38.213Z,99196.74
2022-11-19T06:25:07.241Z,99204.63
2022-11-19T06:27:34.538Z,99215.51
2022-11-19T06:30:01.714Z,99217.52
2022-11-19T06:32:32.276Z,99219.33
2022-11-19T06:35:04.649Z,99224.19
2022-11-19T06:37:31.881Z,99224.63
2022-11-19T06:39:58.758Z,99231.55
2022-11-19T06:42:38.372Z,99223.13
2022-11-19T06:45:14.249Z,99254.19
2022-11-19T06:47:42.224Z,99255.23
2022-11-19T06:50:10.336Z,99252.52
2022-11-19T06:52:37.741Z,99256.75
2022-11-19T06:55:05.024Z,99264.52
2022-11-19T06:57:31.867Z,99285.14
2022-11-19T06:59:58.948Z,99305.88
2022-11-19T07:02:25.820Z,99314.62
2022-11-19T07:04:52.645Z,99319.95
2022-11-19T07:07:20.805Z,99326.74
2022-11-19T07:09:47.750Z,99335.90
2022-11-19T07:12:14.561Z,99339.66
2022-11-19T07:14:41.399Z,99341.03
2022-11-19T07:17:08.309Z,99336.52
2022-11-19T07:19:35.085Z,99340.20
2022-11-19T07:22:01.917Z,99349.77
2022-11-19T07:24:28.677Z,99360.81
2022-11-19T07:26:55.904Z,99372.06
2022-11-19T07:29:22.970Z,99378.18
2022-11-19T07:31:52.681Z,99376.36
2022-11-19T07:34:20.127Z,99382.81
2022-11-19T07:36:47.330Z,99392.90
2022-11-19T07:39:14.167Z,99396.64
2022-11-19T07:41:59.934Z,99396.27
2022-11-19T07:44:26.736Z,99395.73
2022-11-19T07:46:53.533Z,99388.76
2022-11-19T07:49:20.798Z,99388.27
2022-11-19T07:51:48.373Z,99390.13
2022-11-19T07:54:15.956Z,99394.30
2022-11-19T07:56:42.966Z,99399.46
2022-11-19T07:59:10.332Z,99410.82
2022-11-19T08:01:38.186Z,99413.27
2022-11-19T08:04:05.362Z,99416.18
2022-11-19T08:06:34.123Z,99411.49
2022-11-19T08:09:02.256Z,99414.33
2022-11-19T08:11:29.167Z,99421.15
2022-11-19T08:13:59.322Z,99431.61
2022-11-19T08:16:44.674Z,99427.59
2022-11-19T08:19:13.980Z,99424.35
2022-11-19T08:21:43.889Z,99427.48
2022-11-19T08:24:11.795Z,99439.77
2022-11-19T08:26:40.406Z,99446.96
2022-11-19T08:29:13.077Z,99446.72
2022-11-19T08:31:45.216Z,99447.04
2022-11-19T08:34:12.455Z,99460.04
2022-11-19T08:36:39.635Z,99472.33
2022-11-19T08:39:06.553Z,99474.39
2022-11-19T08:41:52.427Z,99487.32
2022-11-19T08:44:20.019Z,99491.50
2022-11-19T08:46:47.181Z,99499.63
2022-11-19T08:49:14.208Z,99515.86
2022-11-19T08:51:41.095Z,99523.52
2022-11-19T08:54:08.295Z,99533.96
2022-11-19T08:56:35.248Z,99543.36
2022-11-19T08:59:03.115Z,99543.84
2022-11-19T09:01:30.429Z,99544.47
2022-11-19T09:03:57.707Z,99547.92
2022-11-19T09:06:24.557Z,99553.41
2022-11-19T09:08:51.627Z,99565.05
2022-11-19T09:11:20.394Z,99563.31
2022-11-19T09:13:47.353Z,99557.63
2022-11-19T09:16:14.874Z,99559.77
2022-11-19T09:18:41.692Z,99560.65
2022-11-19T09:21:11.082Z,99569.64
2022-11-19T09:23:39.155Z,99579.34
2022-11-19T09:26:12.114Z,99592.64
2022-11-19T09:28:39.452Z,99598.45
2022-11-19T09:31:11.677Z,99601.75
2022-11-19T09:33:41.683Z,99607.84
2022-11-19T09:36:10.783Z,99600.14
2022-11-19T09:38:38.812Z,99591.44
2022-11-19T09:41:40.832Z,99576.36
2022-11-19T09:44:55.768Z,99571.11
2022-11-19T09:47:49.370Z,99575.94
2022-11-19T09:50:18.501Z,99578.80
2022-11-19T09:52:52.434Z,99580.09
2022-11-19T09:55:32.595Z,99593.84
2022-11-19T09:58:00.456Z,99608.25
2022-11-19T10:00:30.464Z,99607.98
2022-11-19T10:03:01.134Z,99608.11
2022-11-19T10:06:08.619Z,99611.55
2022-11-19T10:09:02.941Z,99609.45
2022-11-19T10:12:03.856Z,99615.91
2022-11-19T10:14:36.831Z,99620.13
2022-11-19T10:17:12.386Z,99632.48
2022-11-19T10:20:00.893Z,99631.98
2022-11-19T10:22:38.361Z,99636.74
2022-11-19T10:25:28.920Z,99640.27
2022-11-19T10:28:11.048Z,99641.08
2022-11-19T10:30:40.456Z,99644.37
2022-11-19T10:33:29.046Z,99647.00
2022-11-19T10:36:02.407Z,99646.90
2022-11-19T10:38:55.543Z,99651.42
2022-11-19T10:41:55.316Z,99656.02
2022-11-19T10:44:45.776Z,99653.78
2022-11-19T10:47:39.532Z,99661.60
2022-11-19T10:50:11.160Z,99668.32
2022-11-19T10:52:44.182Z,99672.26
2022-11-19T10:55:19.749Z,99674.98
2022-11-19T10:57:50.224Z,99685.73
2022-11-19T11:00:17.426Z,99695.13
2022-11-19T11:02:57.871Z,99705.36
2022-11-19T11:05:24.676Z,99704.58
2022-11-19T11:07:52.970Z,99707.38
2022-11-19T11:10:25.959Z,99715.33
2022-11-19T11:13:14.089Z,99721.73
2022-11-19T11:15:46.886Z,99726.73
2022-11-19T11:18:14.942Z,99729.40
2022-11-19T11:20:47.949Z,99735.24
2022-11-19T11:23:18.575Z,99738.32
2022-11-19T11:25:58.966Z,99740.20
2022-11-19T11:28:25.814Z,99743.00
2022-11-19T11:31:01.651Z,99749.17
2022-11-19T11:33:54.626Z,99747.81
2022-11-19T11:36:25.659Z,99744.95
2022-11-19T11:38:55.242Z,99750.71
2022-11-19T11:44:23.374Z,99756.58
2022-11-19T11:46:53.692Z,99762.52
2022-11-19T11:49:29.723Z,99769.23
2022-11-19T11:51:59.351Z,99774.36
2022-11-19T11:54:26.221Z,99770.42
2022-11-19T11:56:52.988Z,99767.67
2022-11-19T11:59:29.350Z,99770.90
2022-11-19T12:02:07.858Z,99781.40
2022-11-19T12:04:35.286Z,99783.45
2022-11-19T12:07:21.183Z,99754.48
2022-11-19T12:10:16.931Z,99792.75
2022-11-19T12:13:02.121Z,99787.14
2022-11-19T12:15:50.678Z,99786.04
2022-11-19T12:18:45.220Z,99787.01
2022-11-19T12:21:18.409Z,99797.70
2022-11-19T12:24:06.957Z,99798.65
2022-11-19T12:26:55.448Z,99802.86
2022-11-19T12:29:31.251Z,99810.29
2022-11-19T12:32:03.687Z,99830.11
2022-11-19T12:34:39.045Z,99840.83
2022-11-19T12:37:24.414Z,99839.20
2022-11-19T12:39:59.968Z,99832.31
2022-11-19T12:42:35.265Z,99836.38
2022-11-19T12:45:35.869Z,99839.13
2022-11-19T12:48:05.642Z,99834.84
2022-11-19T12:50:38.257Z,99830.27
2022-11-19T12:53:05.119Z,99828.55
2022-11-19T12:55:50.680Z,99825.24
2022-11-19T12:58:45.342Z,99829.94
2022-11-19T13:01:21.359Z,99846.63
2022-11-19T13:03:48.340Z,99846.52
2022-11-19T13:06:24.697Z,99848.05
2022-11-19T13:08:58.297Z,99858.90
2022-11-19T13:11:35.983Z,99866.02
2022-11-19T13:14:11.176Z,99875.71
2022-11-19T13:16:40.525Z,99877.27
2022-11-19T13:19:19.859Z,99882.13
2022-11-19T13:21:54.106Z,99902.33
2022-11-19T13:24:46.338Z,99900.21
2022-11-19T13:27:23.207Z,99899.91
2022-11-19T13:29:58.521Z,99912.59
2022-11-19T13:33:00.652Z,99917.42
2022-11-19T13:35:45.361Z,99934.20
2022-11-19T13:38:12.140Z,99940.18
2022-11-19T13:40:47.015Z,99943.16
2022-11-19T13:43:36.922Z,99942.71
2022-11-19T13:46:14.776Z,99944.60
2022-11-19T13:49:02.199Z,99957.41
2022-11-19T13:51:34.972Z,99956.41
2022-11-19T13:54:04.265Z,99973.84
2022-11-19T13:56:57.759Z,99977.58
2022-11-19T13:59:43.084Z,99984.53
2022-11-19T14:02:19.683Z,99993.72
2022-11-19T14:05:25.961Z,99994.71
2022-11-19T14:08:24.275Z,100004.21
2022-11-19T14:11:09.543Z,100005.52
2022-11-19T14:14:36.063Z,99996.13
2022-11-19T14:17:49.299Z,100013.25
2022-11-19T14:20:59.348Z,100009.41
2022-11-19T14:24:05.448Z,100021.13
2022-11-19T14:26:41.698Z,100028.17
2022-11-19T14:29:17.966Z,100027.27
2022-11-19T14:32:11.449Z,100030.27
2022-11-19T14:34:39.984Z,100033.34
2022-11-19T14:37:19.937Z,100036.59
2022-11-19T14:39:55.922Z,100039.64
2022-11-19T14:42:23.180Z,100046.08
2022-11-19T14:45:02.363Z,100056.13
2022-11-19T14:47:36.154Z,100064.98
2022-11-19T14:50:27.363Z,100069.25
2022-11-19T14:52:56.783Z,100068.41
2022-11-19T14:55:27.233Z,100071.19
2022-11-19T14:58:01.898Z,100065.32
2022-11-19T15:00:37.012Z,100072.11
2022-11-19T15:03:11.424Z,100073.91
2022-11-19T15:05:45.565Z,100074.11
2022-11-19T15:08:18.583Z,100080.70
2022-11-19T15:11:05.303Z,100085.39
2022-11-19T15:13:33.834Z,100091.62
2022-11-19T15:16:18.897Z,100096.95
2022-11-19T15:18:46.092Z,100106.13
2022-11-19T15:21:42.655Z,100115.13
2022-11-19T15:24:16.879Z,100115.34
2022-11-19T15:27:18.612Z,100122.41
2022-11-19T15:30:18.361Z,100128.98
2022-11-19T15:32:59.990Z,100143.35
2022-11-19T15:35:35.035Z,100155.03
2022-11-19T15:38:20.373Z,100159.83
2022-11-19T15:40:50.952Z,100160.08
2022-11-19T15:43:45.337Z,100157.77
2022-11-19T15:46:18.283Z,100160.98
2022-11-19T15:48:56.284Z,100159.95
2022-11-19T15:51:23.866Z,100164.73
2022-11-19T15:53:59.298Z,100171.70
2022-11-19T15:56:32.580Z,100170.73
2022-11-19T15:59:02.795Z,100170.64
2022-11-19T16:01:33.892Z,100172.95
2022-11-19T16:04:07.197Z,100176.25
2022-11-19T16:06:36.592Z,100173.89
2022-11-19T16:09:08.158Z,100175.22
2022-11-19T16:11:56.278Z,100173.25
2022-11-19T16:14:44.697Z,100170.94
2022-11-19T16:17:44.180Z,100169.32
2022-11-19T16:20:18.864Z,100178.17
2022-11-19T16:22:48.904Z,100180.69
2022-11-19T16:25:35.292Z,100181.80
2022-11-19T16:28:06.503Z,100176.08
2022-11-19T16:30:49.017Z,100175.29
2022-11-19T16:33:30.451Z,100172.28
2022-11-19T16:36:13.171Z,100174.48
2022-11-19T16:38:42.872Z,100177.04
2022-11-19T16:41:31.130Z,100180.86
2022-11-19T16:43:58.838Z,100181.73
2022-11-19T16:46:29.253Z,100181.80
2022-11-19T16:48:58.773Z,100185.68
2022-11-19T16:51:39.451Z,100184.00
2022-11-19T16:54:10.676Z,100189.11
2022-11-19T16:56:42.469Z,100191.30
2022-11-19T16:59:20.943Z,100191.08
2022-11-19T17:01:57.947Z,100195.77
2022-11-19T17:04:30.069Z,100199.59
2022-11-19T17:06:58.653Z,100196.78
2022-11-19T17:09:43.970Z,100201.38
2022-11-19T17:12:33.628Z,100201.66
2022-11-19T17:15:21.865Z,100201.39
2022-11-19T17:17:51.323Z,100198.05
2022-11-19T17:20:27.458Z,100190.38
2022-11-19T17:22:56.279Z,100177.23
2022-11-19T17:25:23.913Z,100172.95
2022-11-19T17:27:55.849Z,100168.68
2022-11-19T17:30:26.203Z,100171.44
2022-11-19T17:33:00.212Z,100176.42
2022-11-19T17:35:37.218Z,100173.15
2022-11-19T17:38:16.989Z,100180.53
2022-11-19T17:40:58.480Z,100178.07
2022-11-19T17:43:58.332Z,100187.23
2022-11-19T17:46:28.719Z,100188.98
2022-11-19T17:48:56.688Z,100187.33
2022-11-19T17:51:25.510Z,100190.73
2022-11-19T17:53:52.816Z,100193.26
2022-11-19T17:56:26.604Z,100192.86
2022-11-19T17:58:54.267Z,100193.17
2022-11-19T18:01:21.845Z,100194.06
2022-11-19T18:03:49.011Z,100195.64
2022-11-19T18:06:17.654Z,100192.23
2022-11-19T18:08:45.392Z,100198.20
2022-11-19T18:11:16.122Z,100200.08
2022-11-19T18:13:44.388Z,100195.64
2022-11-19T18:16:22.473Z,100192.55
2022-11-19T18:18:50.241Z,100190.32
2022-11-19T18:21:20.008Z,100187.59
2022-11-19T18:23:49.745Z,100193.92
2022-11-19T18:26:19.085Z,100190.96
2022-11-19T18:28:48.785Z,100190.64
2022-11-19T18:31:18.259Z,100194.55
2022-11-19T18:33:47.498Z,100195.84
2022-11-19T18:36:15.188Z,100196.95
2022-11-19T18:38:42.682Z,100201.53
2022-11-19T18:41:10.833Z,100215.39
2022-11-19T18:43:56.099Z,100217.36
2022-11-19T18:46:23.230Z,100226.41
2022-11-19T18:48:50.426Z,100230.80
2022-11-19T18:51:17.277Z,100237.63
2022-11-19T18:53:44.045Z,100244.34
2022-11-19T18:56:15.215Z,100251.40
2022-11-19T18:58:42.441Z,100251.27
2022-11-19T19:01:09.619Z,100251.89
2022-11-19T19:03:36.978Z,100249.73
2022-11-19T19:06:06.719Z,100251.13
2022-11-19T19:08:34.335Z,100248.76
2022-11-19T19:11:24.135Z,100241.55
2022-11-19T19:13:51.540Z,100247.95
2022-11-19T19:16:18.380Z,100250.13
2022-11-19T19:18:45.379Z,100245.41
2022-11-19T19:21:17.076Z,100246.15
2022-11-19T19:23:44.319Z,100251.71
2022-11-19T19:26:12.786Z,100250.95
2022-11-19T19:28:39.741Z,100242.06
2022-11-19T19:31:06.873Z,100240.02
2022-11-19T19:33:34.457Z,100249.27
2022-11-19T19:36:05.564Z,100251.17
2022-11-19T19:38:32.542Z,100255.64
2022-11-19T19:41:07.229Z,100252.89
2022-11-19T19:43:34.249Z,100256.35
2022-11-19T19:46:04.687Z,100258.60
2022-11-19T19:48:31.836Z,100261.36
2022-11-19T19:50:58.869Z,100269.63
2022-11-19T19:53:25.762Z,100278.27
2022-11-19T19:56:02.035Z,100280.13
2022-11-19T19:58:28.888Z,100284.92
2022-11-19T20:01:06.078Z,100286.98
2022-11-19T20:03:34.547Z,100286.96
2022-11-19T20:06:02.948Z,100282.27
2022-11-19T20:08:30.488Z,100285.02
2022-11-19T20:11:02.744Z,100288.45
2022-11-19T20:13:32.592Z,100295.48
2022-11-19T20:16:05.010Z,100297.36
2022-11-19T20:18:33.325Z,100301.98
2022-11-19T20:21:01.161Z,100310.88
2022-11-19T20:23:28.162Z,100312.74
2022-11-19T20:26:00.104Z,100314.07
2022-11-19T20:28:28.396Z,100318.51
2022-11-19T20:31:25.452Z,100316.45
2022-11-19T20:33:58.387Z,100303.36
2022-11-19T20:36:27.513Z,100307.98
2022-11-19T20:38:56.803Z,100304.90
2022-11-19T20:41:43.480Z,100307.30
2022-11-19T20:44:21.354Z,100303.54
2022-11-19T20:46:57.310Z,100299.05
2022-11-19T20:49:26.808Z,100301.63
2022-11-19T20:51:54.335Z,100291.83
2022-11-19T20:54:22.614Z,100298.16
2022-11-19T20:56:50.725Z,100299.67
2022-11-19T20:59:18.752Z,100296.89
2022-11-19T21:01:48.750Z,100300.64
2022-11-19T21:04:15.757Z,100297.85
2022-11-19T21:06:42.484Z,100297.36
2022-11-19T21:09:09.372Z,100294.63
2022-11-19T21:11:36.366Z,100304.23
2022-11-19T21:14:04.283Z,100304.95
2022-11-19T21:16:32.341Z,100297.73
2022-11-19T21:19:00.291Z,100297.37
2022-11-19T21:21:27.748Z,100297.73
2022-11-19T21:23:55.248Z,100297.36
2022-11-19T21:26:24.287Z,100292.20
2022-11-19T21:28:53.553Z,100291.70
2022-11-19T21:31:37.244Z,100303.27
2022-11-19T21:34:11.851Z,100304.93
2022-11-19T21:36:41.379Z,100306.08
2022-11-19T21:39:09.282Z,100304.83
2022-11-19T21:41:36.633Z,100301.36
2022-11-19T21:44:04.782Z,100293.44
2022-11-19T21:46:31.863Z,100301.67
2022-11-19T21:48:58.721Z,100298.69
2022-11-19T21:51:25.645Z,100293.95
2022-11-19T21:53:54.929Z,100289.77
2022-11-19T21:56:22.401Z,100296.65
2022-11-19T21:58:49.254Z,100294.90
2022-11-19T22:01:16.290Z,100297.19
2022-11-19T22:03:43.143Z,100299.98
2022-11-19T22:06:11.120Z,100299.82
2022-11-19T22:08:40.240Z,100295.83
2022-11-19T22:11:27.790Z,100294.83
2022-11-19T22:13:57.059Z,100288.34
2022-11-19T22:16:23.932Z,100287.23
2022-11-19T22:18:50.691Z,100279.70
2022-11-19T22:21:18.669Z,100270.85
2022-11-19T22:23:45.977Z,100266.24
2022-11-19T22:26:14.919Z,100261.86
2022-11-19T22:28:41.721Z,100261.90
2022-11-19T22:31:09.037Z,100259.73
2022-11-19T22:33:38.522Z,100255.38
2022-11-19T22:36:10.068Z,100249.47
2022-11-19T22:38:38.572Z,100250.92
2022-11-19T22:41:12.188Z,100253.36
2022-11-19T22:43:39.944Z,100254.86
2022-11-19T22:46:09.240Z,100257.58
2022-11-19T22:48:36.252Z,100263.12
2022-11-19T22:51:12.942Z,100265.23
2022-11-19T22:53:40.531Z,100255.89
2022-11-19T22:56:09.882Z,100263.70
2022-11-19T22:58:37.802Z,100265.52
2022-11-19T23:01:06.388Z,100264.74
2022-11-19T23:03:33.230Z,100261.04
2022-11-19T23:06:00.045Z,100250.09
2022-11-19T23:08:26.833Z,100245.66
2022-11-19T23:10:59.309Z,100242.74
2022-11-19T23:13:32.289Z,100238.81
2022-11-19T23:16:06.821Z,100246.69
2022-11-19T23:18:47.432Z,100242.61
2022-11-19T23:21:17.854Z,100229.28
2022-11-19T23:23:44.682Z,100221.60
2022-11-19T23:26:14.041Z,100218.72
2022-11-19T23:28:41.347Z,100223.85
2022-11-19T23:31:29.726Z,100232.09
2022-11-19T23:33:59.286Z,100228.44
2022-11-19T23:36:34.987Z,100232.81
2022-11-19T23:39:03.119Z,100218.25
2022-11-19T23:41:32.104Z,100224.48
2022-11-19T23:43:59.041Z,100225.73
2022-11-19T23:46:30.881Z,100217.32
2022-11-19T23:48:58.731Z,100213.94
2022-11-19T23:51:28.396Z,100213.84
2022-11-19T23:53:56.164Z,100203.46
2022-11-19T23:56:24.260Z,100198.20
2022-11-19T23:58:51.659Z,100197.38
